sensor_id;sensor_type;location;lat;lon;timestamp;pressure;altitude;pressure_sealevel;temperature;humidity
63654;BME280;49809;47.418;19.080;2023-07-13T00:10:08;100212.69;;;24.86;72.59
63654;BME280;49809;47.418;19.080;2023-07-13T00:13:55;100194.69;;;24.78;72.21
63654;BME280;49809;47.418;19.080;2023-07-13T00:17:31;100197.47;;;24.66;71.87
63654;BME280;49809;47.418;19.080;2023-07-13T00:21:44;100189.44;;;24.69;71.39
63654;BME280;49809;47.418;19.080;2023-07-13T00:29:18;100170.75;;;24.49;71.08
63654;BME280;49809;47.418;19.080;2023-07-13T00:32:43;100158.87;;;24.53;70.18
63654;BME280;49809;47.418;19.080;2023-07-13T00:36:20;100150.41;;;24.39;72.05
63654;BME280;49809;47.418;19.080;2023-07-13T00:53:05;100109.84;;;23.83;73.76
63654;BME280;49809;47.418;19.080;2023-07-13T00:56:43;100104.72;;;23.66;73.42
63654;BME280;49809;47.418;19.080;2023-07-13T01:00:29;100107.66;;;23.61;73.70
63654;BME280;49809;47.418;19.080;2023-07-13T01:07:59;100101.94;;;23.51;73.93
63654;BME280;49809;47.418;19.080;2023-07-13T01:20:01;100077.63;;;23.38;74.03
63654;BME280;49809;47.418;19.080;2023-07-13T01:23:51;100062.25;;;23.27;74.50
63654;BME280;49809;47.418;19.080;2023-07-13T01:27:27;100077.91;;;23.21;74.58
63654;BME280;49809;47.418;19.080;2023-07-13T01:34:56;100074.22;;;23.02;75.40
63654;BME280;49809;47.418;19.080;2023-07-13T01:38:35;100081.19;;;22.90;76.55
63654;BME280;49809;47.418;19.080;2023-07-13T01:42:11;100070.63;;;22.85;76.79
63654;BME280;49809;47.418;19.080;2023-07-13T01:49:39;100064.78;;;22.71;77.93
63654;BME280;49809;47.418;19.080;2023-07-13T01:53:15;100049.47;;;22.63;78.01
63654;BME280;49809;47.418;19.080;2023-07-13T01:56:54;100045.78;;;22.56;78.25
63654;BME280;49809;47.418;19.080;2023-07-13T02:08:30;100034.50;;;22.41;79.12
63654;BME280;49809;47.418;19.080;2023-07-13T02:12:14;100035.06;;;22.35;80.07
63654;BME280;49809;47.418;19.080;2023-07-13T02:15:51;100036.41;;;22.29;80.67
63654;BME280;49809;47.418;19.080;2023-07-13T02:19:27;100051.22;;;22.23;81.18
63654;BME280;49809;47.418;19.080;2023-07-13T02:23:14;100049.09;;;22.16;82.11
63654;BME280;49809;47.418;19.080;2023-07-13T02:26:53;100042.66;;;22.08;81.83
63654;BME280;49809;47.418;19.080;2023-07-13T02:30:31;100047.81;;;22.01;82.94
63654;BME280;49809;47.418;19.080;2023-07-13T02:42:08;100069.72;;;21.79;84.51
63654;BME280;49809;47.418;19.080;2023-07-13T02:53:49;100070.47;;;21.67;84.87
63654;BME280;49809;47.418;19.080;2023-07-13T02:57:27;100073.16;;;21.67;85.38
63654;BME280;49809;47.418;19.080;2023-07-13T03:01:10;100071.91;;;21.65;85.93
63654;BME280;49809;47.418;19.080;2023-07-13T03:08:37;100077.69;;;21.55;86.72
63654;BME280;49809;47.418;19.080;2023-07-13T03:20:45;100104.63;;;21.55;86.65
63654;BME280;49809;47.418;19.080;2023-07-13T03:28:36;100100.53;;;21.69;86.61
63654;BME280;49809;47.418;19.080;2023-07-13T03:32:14;100090.34;;;21.75;86.27
63654;BME280;49809;47.418;19.080;2023-07-13T03:36:30;100084.31;;;21.78;86.88
63654;BME280;49809;47.418;19.080;2023-07-13T03:44:04;100080.87;;;22.10;85.85
63654;BME280;49809;47.418;19.080;2023-07-13T03:47:47;100099.78;;;22.35;85.25
63654;BME280;49809;47.418;19.080;2023-07-13T03:51:41;100102.97;;;22.49;85.67
63654;BME280;49809;47.418;19.080;2023-07-13T04:03:29;100104.91;;;23.09;84.32
63654;BME280;49809;47.418;19.080;2023-07-13T04:07:05;100107.50;;;23.06;84.83
63654;BME280;49809;47.418;19.080;2023-07-13T04:10:46;100114.59;;;23.10;84.18
63654;BME280;49809;47.418;19.080;2023-07-13T04:18:15;100170.72;;;23.29;83.63
63654;BME280;49809;47.418;19.080;2023-07-13T04:22:01;100180.50;;;23.21;83.23
63654;BME280;49809;47.418;19.080;2023-07-13T04:25:37;100154.19;;;23.18;82.39
63654;BME280;49809;47.418;19.080;2023-07-13T04:29:15;100175.00;;;23.18;82.51
63654;BME280;49809;47.418;19.080;2023-07-13T04:45:42;100219.66;;;23.15;82.43
63654;BME280;49809;47.418;19.080;2023-07-13T04:49:41;100226.97;;;23.03;83.70
63654;BME280;49809;47.418;19.080;2023-07-13T04:53:25;100234.34;;;22.81;85.04
63654;BME280;49809;47.418;19.080;2023-07-13T04:57:05;100242.72;;;22.68;86.52
63654;BME280;49809;47.418;19.080;2023-07-13T05:00:53;100247.50;;;22.50;90.64
63654;BME280;49809;47.418;19.080;2023-07-13T05:12:57;100334.78;;;21.02;100.00
63654;BME280;49809;47.418;19.080;2023-07-13T05:20:28;100387.59;;;20.29;100.00
63654;BME280;49809;47.418;19.080;2023-07-13T05:24:04;100389.25;;;20.00;100.00
63654;BME280;49809;47.418;19.080;2023-07-13T05:27:43;100376.06;;;19.81;100.00
63654;BME280;49809;47.418;19.080;2023-07-13T05:39:46;100378.69;;;19.41;100.00
63654;BME280;49809;47.418;19.080;2023-07-13T05:43:30;100401.06;;;19.28;100.00
63654;BME280;49809;47.418;19.080;2023-07-13T05:47:25;100406.91;;;19.08;100.00
63654;BME280;49809;47.418;19.080;2023-07-13T05:55:22;100370.34;;;19.12;100.00
63654;BME280;49809;47.418;19.080;2023-07-13T05:59:01;100351.00;;;19.01;100.00
63654;BME280;49809;47.418;19.080;2023-07-13T06:02:34;100334.72;;;18.98;100.00
63654;BME280;49809;47.418;19.080;2023-07-13T06:06:17;100314.78;;;18.90;100.00
63654;BME280;49809;47.418;19.080;2023-07-13T06:09:43;100304.19;;;18.85;100.00
63654;BME280;49809;47.418;19.080;2023-07-13T06:13:25;100233.78;;;18.80;100.00
63654;BME280;49809;47.418;19.080;2023-07-13T06:17:07;100072.56;;;18.73;100.00
63654;BME280;49809;47.418;19.080;2023-07-13T06:20:40;100101.72;;;18.65;100.00
63654;BME280;49809;47.418;19.080;2023-07-13T06:24:13;99994.31;;;18.62;100.00
63654;BME280;49809;47.418;19.080;2023-07-13T06:27:51;99993.69;;;18.74;100.00
63654;BME280;49809;47.418;19.080;2023-07-13T06:31:21;100024.31;;;18.81;100.00
63654;BME280;49809;47.418;19.080;2023-07-13T06:34:58;100020.06;;;18.89;100.00
63654;BME280;49809;47.418;19.080;2023-07-13T06:38:51;99993.91;;;18.94;100.00
63654;BME280;49809;47.418;19.080;2023-07-13T06:42:16;99990.44;;;19.02;100.00
63654;BME280;49809;47.418;19.080;2023-07-13T06:45:56;100003.41;;;19.26;100.00
63654;BME280;49809;47.418;19.080;2023-07-13T06:49:42;99990.31;;;19.50;100.00
63654;BME280;49809;47.418;19.080;2023-07-13T06:53:24;100001.50;;;19.70;100.00
63654;BME280;49809;47.418;19.080;2023-07-13T06:57:01;100017.56;;;19.95;100.00
63654;BME280;49809;47.418;19.080;2023-07-13T07:00:37;100015.12;;;20.11;100.00
63654;BME280;49809;47.418;19.080;2023-07-13T07:04:28;100015.06;;;20.28;100.00
63654;BME280;49809;47.418;19.080;2023-07-13T07:08:04;100010.28;;;20.80;100.00
63654;BME280;49809;47.418;19.080;2023-07-13T07:11:51;100013.94;;;21.26;100.00
63654;BME280;49809;47.418;19.080;2023-07-13T07:15:42;100051.25;;;21.69;100.00
63654;BME280;49809;47.418;19.080;2023-07-13T07:19:21;100047.31;;;22.20;94.29
63654;BME280;49809;47.418;19.080;2023-07-13T07:22:46;100180.09;;;22.17;99.77
63654;BME280;49809;47.418;19.080;2023-07-13T07:26:23;100223.34;;;22.21;98.05
63654;BME280;49809;47.418;19.080;2023-07-13T07:30:16;100246.91;;;22.44;95.66
63654;BME280;49809;47.418;19.080;2023-07-13T07:33:40;100252.12;;;22.29;92.94
63654;BME280;49809;47.418;19.080;2023-07-13T07:41:17;100248.25;;;22.71;94.42
63654;BME280;49809;47.418;19.080;2023-07-13T07:44:41;100251.50;;;23.34;89.13
63654;BME280;49809;47.418;19.080;2023-07-13T07:48:17;100251.59;;;24.10;83.40
63654;BME280;49809;47.418;19.080;2023-07-13T07:52:18;100252.34;;;24.23;83.86
63654;BME280;49809;47.418;19.080;2023-07-13T07:55:59;100266.03;;;24.42;81.28
63654;BME280;49809;47.418;19.080;2023-07-13T07:59:48;100271.09;;;25.15;77.86
63654;BME280;49809;47.418;19.080;2023-07-13T08:03:34;100282.31;;;26.15;73.71
63654;BME280;49809;47.418;19.080;2023-07-13T08:07:15;100269.62;;;26.57;67.94
63654;BME280;49809;47.418;19.080;2023-07-13T08:11:14;100267.22;;;26.33;68.69
63654;BME280;49809;47.418;19.080;2023-07-13T08:15:01;100259.06;;;27.92;65.52
63654;BME280;49809;47.418;19.080;2023-07-13T08:18:55;100254.31;;;28.45;60.82
63654;BME280;49809;47.418;19.080;2023-07-13T08:22:42;100255.25;;;28.97;61.73
63654;BME280;49809;47.418;19.080;2023-07-13T08:30:28;100255.69;;;28.66;59.65
63654;BME280;49809;47.418;19.080;2023-07-13T08:34:01;100252.75;;;29.76;57.55
63654;BME280;49809;47.418;19.080;2023-07-13T08:37:39;100250.53;;;30.00;55.42
63654;BME280;49809;47.418;19.080;2023-07-13T08:48:58;100249.22;;;31.76;51.32
63654;BME280;49809;47.418;19.080;2023-07-13T08:52:40;100266.25;;;30.31;54.33
63654;BME280;49809;47.418;19.080;2023-07-13T09:12:31;100265.25;;;31.77;49.62
63654;BME280;49809;47.418;19.080;2023-07-13T09:16:14;100259.75;;;31.88;48.68
63654;BME280;49809;47.418;19.080;2023-07-13T09:23:47;100259.03;;;31.70;49.01
63654;BME280;49809;47.418;19.080;2023-07-13T09:27:42;100251.22;;;32.66;48.68
63654;BME280;49809;47.418;19.080;2023-07-13T09:31:34;100242.53;;;31.91;47.37
63654;BME280;49809;47.418;19.080;2023-07-13T09:35:27;100254.25;;;32.78;46.22
63654;BME280;49809;47.418;19.080;2023-07-13T09:56:27;100263.00;;;32.56;46.49
63654;BME280;49809;47.418;19.080;2023-07-13T10:03:52;100276.59;;;32.77;46.14
63654;BME280;49809;47.418;19.080;2023-07-13T10:07:39;100268.09;;;32.54;46.60
63654;BME280;49809;47.418;19.080;2023-07-13T10:11:55;100271.63;;;33.16;44.89
63654;BME280;49809;47.418;19.080;2023-07-13T10:15:32;100275.97;;;33.10;44.12
63654;BME280;49809;47.418;19.080;2023-07-13T10:27:09;100276.66;;;33.22;43.24
63654;BME280;49809;47.418;19.080;2023-07-13T10:36:03;100279.66;;;32.13;46.83
63654;BME280;49809;47.418;19.080;2023-07-13T10:49:05;100273.94;;;33.62;42.71
63654;BME280;49809;47.418;19.080;2023-07-13T10:52:50;100273.94;;;34.34;39.75
63654;BME280;49809;47.418;19.080;2023-07-13T10:56:45;100281.19;;;32.07;44.08
63654;BME280;49809;47.418;19.080;2023-07-13T11:00:32;100287.00;;;33.00;42.37
63654;BME280;49809;47.418;19.080;2023-07-13T11:04:13;100278.94;;;33.75;40.96
63654;BME280;49809;47.418;19.080;2023-07-13T11:16:51;100281.88;;;33.53;41.41
63654;BME280;49809;47.418;19.080;2023-07-13T11:20:39;100282.06;;;34.11;38.62
63654;BME280;49809;47.418;19.080;2023-07-13T11:24:47;100284.41;;;32.82;40.21
63654;BME280;49809;47.418;19.080;2023-07-13T11:28:47;100281.50;;;33.92;40.72
63654;BME280;49809;47.418;19.080;2023-07-13T11:36:58;100268.56;;;35.07;38.55
63654;BME280;49809;47.418;19.080;2023-07-13T11:52:32;100277.44;;;36.44;36.16
63654;BME280;49809;47.418;19.080;2023-07-13T12:00:52;100267.47;;;35.01;35.62
63654;BME280;49809;47.418;19.080;2023-07-13T12:08:26;100262.19;;;33.21;39.58
63654;BME280;49809;47.418;19.080;2023-07-13T12:12:19;100255.97;;;34.56;39.85
63654;BME280;49809;47.418;19.080;2023-07-13T12:15:56;100256.41;;;33.90;39.31
63654;BME280;49809;47.418;19.080;2023-07-13T12:19:44;100260.31;;;35.30;35.80
63654;BME280;49809;47.418;19.080;2023-07-13T12:23:51;100253.38;;;34.99;36.82
63654;BME280;49809;47.418;19.080;2023-07-13T12:27:33;100256.78;;;35.53;35.77
63654;BME280;49809;47.418;19.080;2023-07-13T12:35:23;100250.09;;;33.93;39.87
63654;BME280;49809;47.418;19.080;2023-07-13T12:39:15;100254.66;;;34.03;38.89
63654;BME280;49809;47.418;19.080;2023-07-13T12:47:12;100239.41;;;34.33;39.07
63654;BME280;49809;47.418;19.080;2023-07-13T12:51:03;100240.81;;;33.43;40.50
63654;BME280;49809;47.418;19.080;2023-07-13T12:54:41;100246.12;;;33.60;40.53
63654;BME280;49809;47.418;19.080;2023-07-13T12:58:27;100238.41;;;33.04;41.86
63654;BME280;49809;47.418;19.080;2023-07-13T13:02:33;100248.84;;;32.71;42.54
63654;BME280;49809;47.418;19.080;2023-07-13T13:09:42;100240.91;;;32.18;44.41
63654;BME280;49809;47.418;19.080;2023-07-13T13:13:10;100251.63;;;31.60;43.40
63654;BME280;49809;47.418;19.080;2023-07-13T13:16:49;100237.19;;;31.10;45.13
63654;BME280;49809;47.418;19.080;2023-07-13T13:20:22;100215.94;;;31.95;44.50
63654;BME280;49809;47.418;19.080;2023-07-13T13:23:57;100209.31;;;31.85;44.40
63654;BME280;49809;47.418;19.080;2023-07-13T13:27:26;100210.91;;;31.76;45.80
63654;BME280;49809;47.418;19.080;2023-07-13T13:30:56;100214.06;;;31.64;43.76
63654;BME280;49809;47.418;19.080;2023-07-13T13:34:40;100215.28;;;30.81;44.62
63654;BME280;49809;47.418;19.080;2023-07-13T13:38:14;100220.66;;;30.42;45.11
63654;BME280;49809;47.418;19.080;2023-07-13T13:41:41;100218.00;;;30.85;46.02
63654;BME280;49809;47.418;19.080;2023-07-13T13:45:13;100220.75;;;30.95;45.17
63654;BME280;49809;47.418;19.080;2023-07-13T13:48:36;100211.00;;;30.84;46.34
63654;BME280;49809;47.418;19.080;2023-07-13T13:52:17;100214.13;;;30.79;46.28
63654;BME280;49809;47.418;19.080;2023-07-13T13:55:36;100209.44;;;30.93;46.28
63654;BME280;49809;47.418;19.080;2023-07-13T13:59:06;100207.06;;;30.85;45.27
63654;BME280;49809;47.418;19.080;2023-07-13T14:02:44;100213.69;;;31.47;43.88
63654;BME280;49809;47.418;19.080;2023-07-13T14:06:39;100217.19;;;31.62;44.83
63654;BME280;49809;47.418;19.080;2023-07-13T14:10:18;100208.66;;;30.79;45.33
63654;BME280;49809;47.418;19.080;2023-07-13T14:14:04;100224.25;;;30.89;46.38
63654;BME280;49809;47.418;19.080;2023-07-13T14:17:31;100224.22;;;30.50;45.31
63654;BME280;49809;47.418;19.080;2023-07-13T14:20:50;100217.22;;;30.63;45.86
63654;BME280;49809;47.418;19.080;2023-07-13T14:24:44;100230.00;;;30.34;47.10
63654;BME280;49809;47.418;19.080;2023-07-13T14:36:02;100224.47;;;30.16;47.67
63654;BME280;49809;47.418;19.080;2023-07-13T14:39:50;100224.97;;;30.47;46.46
63654;BME280;49809;47.418;19.080;2023-07-13T14:43:15;100239.84;;;30.49;47.35
63654;BME280;49809;47.418;19.080;2023-07-13T14:46:52;100251.38;;;30.11;48.23
63654;BME280;49809;47.418;19.080;2023-07-13T14:50:41;100257.66;;;30.22;47.49
63654;BME280;49809;47.418;19.080;2023-07-13T14:54:36;100260.38;;;29.53;49.74
63654;BME280;49809;47.418;19.080;2023-07-13T14:57:59;100255.94;;;29.89;49.91
63654;BME280;49809;47.418;19.080;2023-07-13T15:01:33;100253.81;;;29.61;48.70
63654;BME280;49809;47.418;19.080;2023-07-13T15:04:56;100245.22;;;29.59;48.77
63654;BME280;49809;47.418;19.080;2023-07-13T15:12:16;100255.44;;;29.18;48.44
63654;BME280;49809;47.418;19.080;2023-07-13T15:15:37;100258.72;;;29.38;46.85
63654;BME280;49809;47.418;19.080;2023-07-13T15:19:10;100267.41;;;29.07;47.35
63654;BME280;49809;47.418;19.080;2023-07-13T15:26:53;100276.47;;;28.77;48.68
63654;BME280;49809;47.418;19.080;2023-07-13T15:30:41;100270.41;;;28.94;49.25
63654;BME280;49809;47.418;19.080;2023-07-13T15:34:25;100264.69;;;29.10;49.32
63654;BME280;49809;47.418;19.080;2023-07-13T15:38:33;100264.00;;;28.43;50.90
63654;BME280;49809;47.418;19.080;2023-07-13T15:42:16;100259.62;;;28.35;52.75
63654;BME280;49809;47.418;19.080;2023-07-13T15:45:41;100248.28;;;28.29;52.31
63654;BME280;49809;47.418;19.080;2023-07-13T15:49:11;100230.69;;;28.20;52.88
63654;BME280;49809;47.418;19.080;2023-07-13T15:52:42;100234.81;;;28.40;53.01
63654;BME280;49809;47.418;19.080;2023-07-13T15:56:38;100243.34;;;28.08;54.26
63654;BME280;49809;47.418;19.080;2023-07-13T16:00:24;100264.53;;;27.92;53.56
63654;BME280;49809;47.418;19.080;2023-07-13T16:04:11;100261.53;;;28.01;55.10
63654;BME280;49809;47.418;19.080;2023-07-13T16:07:53;100273.06;;;28.21;54.52
63654;BME280;49809;47.418;19.080;2023-07-13T16:11:44;100272.81;;;28.33;54.15
63654;BME280;49809;47.418;19.080;2023-07-13T16:15:35;100283.56;;;27.92;53.79
63654;BME280;49809;47.418;19.080;2023-07-13T16:19:13;100293.59;;;28.15;54.67
63654;BME280;49809;47.418;19.080;2023-07-13T16:22:44;100307.22;;;28.15;55.04
63654;BME280;49809;47.418;19.080;2023-07-13T16:26:37;100301.53;;;28.00;54.35
63654;BME280;49809;47.418;19.080;2023-07-13T16:29:53;100298.06;;;28.03;54.88
63654;BME280;49809;47.418;19.080;2023-07-13T16:33:31;100294.69;;;28.10;54.37
63654;BME280;49809;47.418;19.080;2023-07-13T16:37:25;100294.44;;;27.92;55.68
63654;BME280;49809;47.418;19.080;2023-07-13T16:40:59;100287.22;;;27.77;56.43
63654;BME280;49809;47.418;19.080;2023-07-13T16:44:39;100283.41;;;27.55;57.15
63654;BME280;49809;47.418;19.080;2023-07-13T16:49:12;100272.13;;;27.53;58.03
63654;BME280;49809;47.418;19.080;2023-07-13T16:52:38;100259.41;;;27.61;57.98
63654;BME280;49809;47.418;19.080;2023-07-13T16:55:43;100266.59;;;27.50;57.67
63654;BME280;49809;47.418;19.080;2023-07-13T16:58:54;100256.59;;;27.54;58.03
63654;BME280;49809;47.418;19.080;2023-07-13T17:05:40;100247.37;;;26.90;58.43
63654;BME280;49809;47.418;19.080;2023-07-13T17:08:46;100240.13;;;27.20;58.73
63654;BME280;49809;47.418;19.080;2023-07-13T17:12:07;100241.50;;;26.88;58.95
63654;BME280;49809;47.418;19.080;2023-07-13T17:15:15;100235.00;;;27.15;58.56
63654;BME280;49809;47.418;19.080;2023-07-13T17:18:25;100231.19;;;27.20;61.20
63654;BME280;49809;47.418;19.080;2023-07-13T17:21:30;100236.69;;;27.23;59.55
63654;BME280;49809;47.418;19.080;2023-07-13T17:24:36;100231.72;;;27.06;59.22
63654;BME280;49809;47.418;19.080;2023-07-13T17:27:44;100224.78;;;27.09;58.95
63654;BME280;49809;47.418;19.080;2023-07-13T17:30:51;100243.81;;;27.09;59.45
63654;BME280;49809;47.418;19.080;2023-07-13T17:33:54;100252.75;;;27.09;60.09
63654;BME280;49809;47.418;19.080;2023-07-13T17:37:02;100258.66;;;26.92;60.77
63654;BME280;49809;47.418;19.080;2023-07-13T17:40:13;100275.25;;;26.87;60.98
63654;BME280;49809;47.418;19.080;2023-07-13T17:43:28;100265.81;;;26.81;60.99
63654;BME280;49809;47.418;19.080;2023-07-13T17:46:33;100268.25;;;26.86;62.20
63654;BME280;49809;47.418;19.080;2023-07-13T17:49:37;100266.91;;;26.76;61.31
63654;BME280;49809;47.418;19.080;2023-07-13T17:52:44;100260.69;;;26.76;61.67
63654;BME280;49809;47.418;19.080;2023-07-13T17:55:54;100252.53;;;26.76;62.45
63654;BME280;49809;47.418;19.080;2023-07-13T17:59:00;100262.16;;;26.73;61.41
63654;BME280;49809;47.418;19.080;2023-07-13T18:02:12;100263.25;;;26.69;61.41
63654;BME280;49809;47.418;19.080;2023-07-13T18:05:20;100254.59;;;26.63;60.82
63654;BME280;49809;47.418;19.080;2023-07-13T18:08:28;100272.41;;;26.61;60.90
63654;BME280;49809;47.418;19.080;2023-07-13T18:11:34;100269.44;;;26.47;60.50
63654;BME280;49809;47.418;19.080;2023-07-13T18:14:39;100274.00;;;26.43;60.90
63654;BME280;49809;47.418;19.080;2023-07-13T18:17:46;100283.22;;;26.38;60.90
63654;BME280;49809;47.418;19.080;2023-07-13T18:20:50;100277.28;;;26.32;63.55
63654;BME280;49809;47.418;19.080;2023-07-13T18:23:54;100281.34;;;26.23;64.37
63654;BME280;49809;47.418;19.080;2023-07-13T18:26:59;100291.78;;;26.05;66.87
63654;BME280;49809;47.418;19.080;2023-07-13T18:30:13;100298.00;;;25.71;70.91
63654;BME280;49809;47.418;19.080;2023-07-13T18:33:24;100301.69;;;25.63;73.46
63654;BME280;49809;47.418;19.080;2023-07-13T18:36:32;100305.37;;;25.55;73.76
63654;BME280;49809;47.418;19.080;2023-07-13T18:39:35;100307.19;;;25.35;73.64
63654;BME280;49809;47.418;19.080;2023-07-13T18:43:02;100304.03;;;25.17;74.93
63654;BME280;49809;47.418;19.080;2023-07-13T18:46:19;100319.97;;;24.91;80.32
63654;BME280;49809;47.418;19.080;2023-07-13T18:49:44;100326.44;;;24.74;84.68
63654;BME280;49809;47.418;19.080;2023-07-13T18:52:51;100327.38;;;24.66;86.84
63654;BME280;49809;47.418;19.080;2023-07-13T18:55:54;100333.66;;;24.54;83.76
63654;BME280;49809;47.418;19.080;2023-07-13T18:59:00;100341.09;;;24.45;83.36
63654;BME280;49809;47.418;19.080;2023-07-13T19:02:10;100338.16;;;24.50;81.74
63654;BME280;49809;47.418;19.080;2023-07-13T19:05:22;100348.97;;;24.50;80.75
63654;BME280;49809;47.418;19.080;2023-07-13T19:08:28;100348.31;;;24.53;80.40
63654;BME280;49809;47.418;19.080;2023-07-13T19:11:33;100360.81;;;24.58;81.93
63654;BME280;49809;47.418;19.080;2023-07-13T19:14:36;100362.72;;;24.57;81.31
63654;BME280;49809;47.418;19.080;2023-07-13T19:17:43;100367.50;;;24.48;82.16
63654;BME280;49809;47.418;19.080;2023-07-13T19:20:48;100374.72;;;24.44;82.46
63654;BME280;49809;47.418;19.080;2023-07-13T19:24:01;100382.50;;;24.34;83.04
63654;BME280;49809;47.418;19.080;2023-07-13T19:27:10;100382.87;;;24.20;83.95
63654;BME280;49809;47.418;19.080;2023-07-13T19:30:15;100379.72;;;24.18;82.59
63654;BME280;49809;47.418;19.080;2023-07-13T19:33:19;100383.41;;;24.13;82.67
63654;BME280;49809;47.418;19.080;2023-07-13T19:36:25;100385.53;;;24.08;83.80
63654;BME280;49809;47.418;19.080;2023-07-13T19:39:37;100391.97;;;24.03;83.90
63654;BME280;49809;47.418;19.080;2023-07-13T19:42:42;100395.91;;;23.94;84.85
63654;BME280;49809;47.418;19.080;2023-07-13T19:45:47;100405.16;;;23.93;85.05
63654;BME280;49809;47.418;19.080;2023-07-13T19:48:53;100405.94;;;23.93;86.03
63654;BME280;49809;47.418;19.080;2023-07-13T19:52:09;100409.66;;;23.89;85.18
63654;BME280;49809;47.418;19.080;2023-07-13T19:55:14;100425.78;;;23.85;85.92
63654;BME280;49809;47.418;19.080;2023-07-13T19:58:18;100424.50;;;23.82;86.27
63654;BME280;49809;47.418;19.080;2023-07-13T20:01:22;100441.88;;;23.81;86.17
63654;BME280;49809;47.418;19.080;2023-07-13T20:04:30;100446.50;;;23.81;86.39
63654;BME280;49809;47.418;19.080;2023-07-13T20:07:38;100459.00;;;23.86;87.20
63654;BME280;49809;47.418;19.080;2023-07-13T20:10:43;100466.44;;;23.76;86.73
63654;BME280;49809;47.418;19.080;2023-07-13T20:13:49;100467.87;;;23.74;86.49
63654;BME280;49809;47.418;19.080;2023-07-13T20:17:02;100465.97;;;23.74;86.12
63654;BME280;49809;47.418;19.080;2023-07-13T20:23:20;100463.25;;;23.74;80.80
63654;BME280;49809;47.418;19.080;2023-07-13T20:26:31;100466.53;;;23.80;80.98
63654;BME280;49809;47.418;19.080;2023-07-13T20:29:34;100467.31;;;23.80;77.39
63654;BME280;49809;47.418;19.080;2023-07-13T20:32:37;100471.09;;;23.55;76.10
63654;BME280;49809;47.418;19.080;2023-07-13T20:35:45;100461.06;;;23.56;73.49
63654;BME280;49809;47.418;19.080;2023-07-13T20:38:48;100462.06;;;23.51;70.86
63654;BME280;49809;47.418;19.080;2023-07-13T20:41:54;100456.38;;;23.44;67.32
63654;BME280;49809;47.418;19.080;2023-07-13T20:45:14;100451.91;;;23.48;67.12
63654;BME280;49809;47.418;19.080;2023-07-13T20:48:37;100444.97;;;23.47;66.07
63654;BME280;49809;47.418;19.080;2023-07-13T20:51:44;100430.47;;;23.43;65.79
63654;BME280;49809;47.418;19.080;2023-07-13T20:55:19;100416.16;;;23.51;66.65
63654;BME280;49809;47.418;19.080;2023-07-13T20:58:29;100408.56;;;23.45;69.09
63654;BME280;49809;47.418;19.080;2023-07-13T21:01:58;100393.75;;;23.30;69.81
63654;BME280;49809;47.418;19.080;2023-07-13T21:05:26;100388.81;;;23.32;69.63
63654;BME280;49809;47.418;19.080;2023-07-13T21:09:14;100382.16;;;23.29;69.03
63654;BME280;49809;47.418;19.080;2023-07-13T21:12:56;100368.87;;;23.24;68.66
63654;BME280;49809;47.418;19.080;2023-07-13T21:16:42;100357.06;;;23.17;68.90
63654;BME280;49809;47.418;19.080;2023-07-13T21:20:02;100354.12;;;23.22;67.87
63654;BME280;49809;47.418;19.080;2023-07-13T21:23:33;100355.69;;;23.11;68.84
63654;BME280;49809;47.418;19.080;2023-07-13T21:26:46;100365.09;;;23.05;68.89
63654;BME280;49809;47.418;19.080;2023-07-13T21:30:31;100372.87;;;23.06;68.77
63654;BME280;49809;47.418;19.080;2023-07-13T21:33:43;100391.44;;;23.08;69.62
63654;BME280;49809;47.418;19.080;2023-07-13T21:36:51;100399.56;;;23.08;69.80
63654;BME280;49809;47.418;19.080;2023-07-13T21:40:01;100405.28;;;23.06;69.50
63654;BME280;49809;47.418;19.080;2023-07-13T21:43:15;100418.44;;;23.08;69.36
63654;BME280;49809;47.418;19.080;2023-07-13T21:46:41;100425.62;;;23.04;69.27
63654;BME280;49809;47.418;19.080;2023-07-13T21:49:48;100423.97;;;23.11;69.17
63654;BME280;49809;47.418;19.080;2023-07-13T21:52:52;100434.44;;;23.13;68.93
63654;BME280;49809;47.418;19.080;2023-07-13T21:56:01;100434.66;;;23.08;68.79
63654;BME280;49809;47.418;19.080;2023-07-13T21:59:18;100440.97;;;23.12;69.27
63654;BME280;49809;47.418;19.080;2023-07-13T22:02:23;100452.78;;;23.19;69.67
63654;BME280;49809;47.418;19.080;2023-07-13T22:05:27;100452.69;;;23.16;69.97
63654;BME280;49809;47.418;19.080;2023-07-13T22:08:36;100460.34;;;23.14;69.91
63654;BME280;49809;47.418;19.080;2023-07-13T22:11:42;100473.50;;;23.15;70.79
63654;BME280;49809;47.418;19.080;2023-07-13T22:15:16;100469.62;;;23.04;70.84
63654;BME280;49809;47.418;19.080;2023-07-13T22:18:21;100469.31;;;22.85;71.91
63654;BME280;49809;47.418;19.080;2023-07-13T22:21:44;100469.88;;;22.90;72.47
63654;BME280;49809;47.418;19.080;2023-07-13T22:24:50;100463.84;;;22.93;72.62
63654;BME280;49809;47.418;19.080;2023-07-13T22:27:53;100460.47;;;22.96;72.41
63654;BME280;49809;47.418;19.080;2023-07-13T22:30:58;100450.81;;;22.66;72.50
63654;BME280;49809;47.418;19.080;2023-07-13T22:34:05;100453.84;;;22.65;72.74
63654;BME280;49809;47.418;19.080;2023-07-13T22:37:16;100458.25;;;22.69;72.36
63654;BME280;49809;47.418;19.080;2023-07-13T22:40:20;100459.38;;;22.68;72.36
63654;BME280;49809;47.418;19.080;2023-07-13T22:43:25;100469.88;;;22.61;72.99
63654;BME280;49809;47.418;19.080;2023-07-13T22:46:31;100476.31;;;22.48;73.55
63654;BME280;49809;47.418;19.080;2023-07-13T22:49:34;100473.19;;;22.67;73.59